Time;durP1;ratioP1;P1;durP2;ratioP2;P2;SDS_P1;SDS_P2;PMS_P1;PMS_P2;Temp;Humidity;BMP_temperature;BMP_pressure;BME280_temperature;BME280_humidity;BME280_pressure;Samples;Min_cycle;Max_cycle;Signal;HPM_P1;HPM_P2
2022/12/12 00:01:26;;;;;;;2.10;1.90;;;-1.70;99.90;-0.60;95613.00;;;;5029641;28;20439;-72
2022/12/12 00:04:15;;;;;;;2.03;1.70;;;-1.70;99.90;-0.90;95607.00;;;;5027744;28;20467;-71
2022/12/12 00:07:04;;;;;;;1.47;1.37;;;-1.50;99.90;-1.40;95614.00;;;;5023532;28;20534;-72
2022/12/12 00:09:53;;;;;;;2.10;1.80;;;-1.80;99.90;-1.40;95608.00;;;;5010418;28;20438;-72
2022/12/12 00:12:42;;;;;;;2.30;1.70;;;-1.90;99.90;-1.40;95607.00;;;;5036854;28;20433;-70
2022/12/12 00:15:30;;;;;;;3.07;1.30;;;-1.90;99.90;-1.40;95611.00;;;;5040650;28;20436;-72
2022/12/12 00:18:21;;;;;;;2.10;1.87;;;-1.90;99.90;-1.20;95611.00;;;;5021356;28;20787;-72
2022/12/12 00:21:15;;;;;;;2.50;1.90;;;-1.90;99.90;-0.70;95633.00;;;;5014408;28;20441;-72
2022/12/12 00:24:04;;;;;;;2.13;1.50;;;-1.80;99.90;-0.80;95619.00;;;;5029391;28;21002;-72
2022/12/12 00:26:52;;;;;;;2.53;2.30;;;-1.80;99.90;-1.00;95622.00;;;;5037427;28;20472;-72
2022/12/12 00:29:41;;;;;;;1.40;1.30;;;-1.80;99.90;-1.00;95621.00;;;;5020617;28;20970;-72
2022/12/12 00:32:30;;;;;;;1.43;1.33;;;-1.80;99.90;-1.50;95629.00;;;;5019432;28;20417;-72
2022/12/12 00:35:20;;;;;;;2.67;2.00;;;-1.90;99.90;-1.50;95607.00;;;;5030844;28;20428;-71
2022/12/12 00:38:09;;;;;;;2.57;2.20;;;-2.00;99.90;-1.50;95617.00;;;;5039959;28;20942;-72
2022/12/12 00:41:00;;;;;;;2.63;1.90;;;-2.10;99.90;-1.20;95631.00;;;;5019520;28;20420;-72
2022/12/12 00:43:49;;;;;;;1.50;1.40;;;-2.00;99.90;-1.10;95618.00;;;;5011272;28;20465;-72
2022/12/12 00:46:39;;;;;;;1.40;1.20;;;-2.10;99.90;-1.30;95630.00;;;;5009911;28;20469;-72
2022/12/12 00:49:28;;;;;;;2.87;2.03;;;-2.10;99.90;-1.40;95631.00;;;;5009378;28;20433;-72
2022/12/12 00:52:18;;;;;;;1.77;1.47;;;-2.10;99.90;-2.00;95624.00;;;;5020365;28;20428;-72
2022/12/12 00:55:08;;;;;;;2.97;1.53;;;-2.20;99.90;-1.70;95618.00;;;;5023429;28;20445;-72
2022/12/12 00:57:56;;;;;;;2.20;2.00;;;-2.30;99.90;-1.40;95627.00;;;;5036248;28;20429;-72
2022/12/12 01:00:45;;;;;;;2.03;1.67;;;-2.30;99.90;-1.50;95623.00;;;;5019955;28;20417;-71
2022/12/12 01:03:35;;;;;;;2.03;1.70;;;-2.30;99.90;-1.90;95609.00;;;;5018479;28;20829;-71
2022/12/12 01:06:24;;;;;;;2.73;1.40;;;-2.30;99.90;-1.90;95611.00;;;;5024309;28;20469;-72
2022/12/12 01:09:14;;;;;;;2.30;2.10;;;-2.10;99.90;-1.60;95614.00;;;;5020496;28;20777;-72
2022/12/12 01:12:03;;;;;;;4.30;2.13;;;-2.40;99.90;-1.60;95619.00;;;;5030251;28;20445;-71
2022/12/12 01:14:52;;;;;;;3.33;1.87;;;-2.40;99.90;-2.00;95614.00;;;;5015449;28;20515;-71
2022/12/12 01:17:41;;;;;;;3.73;1.53;;;-2.50;99.90;-2.20;95615.00;;;;5029708;28;20432;-71
2022/12/12 01:20:29;;;;;;;2.00;1.37;;;-2.50;99.90;-2.50;95614.00;;;;5023211;28;20425;-72
2022/12/12 01:23:18;;;;;;;1.83;1.73;;;-2.60;99.90;-2.40;95610.00;;;;5026079;28;20444;-72
2022/12/12 01:26:14;;;;;;;2.33;1.60;;;-2.70;99.90;-2.00;95617.00;;;;5019297;28;20474;-72
2022/12/12 01:29:02;;;;;;;2.20;1.50;;;-2.80;99.90;-2.10;95622.00;;;;5030057;28;20433;-71
2022/12/12 01:31:51;;;;;;;1.87;1.70;;;-2.80;99.90;-2.20;95621.00;;;;5009379;28;20429;-72
2022/12/12 01:34:40;;;;;;;2.53;2.33;;;-2.50;99.90;-2.10;95629.00;;;;5020026;28;20449;-72
2022/12/12 01:37:29;;;;;;;1.13;1.13;;;-2.80;99.90;-2.30;95630.00;;;;5023878;28;20429;-71
2022/12/12 01:40:22;;;;;;;1.03;1.03;;;-2.90;99.90;-2.50;95643.00;;;;5016004;28;20445;-72
2022/12/12 01:43:14;;;;;;;1.53;1.40;;;-2.90;99.90;-2.30;95635.00;;;;5025974;28;20458;-72
2022/12/12 01:46:44;;;;;;;1.00;1.00;;;-2.90;99.90;-2.70;95633.00;;;;5016601;28;20489;-71
2022/12/12 01:49:34;;;;;;;2.37;1.40;;;-3.00;99.90;-2.60;95638.00;;;;5024269;28;20435;-72
2022/12/12 01:52:29;;;;;;;1.23;1.20;;;-3.10;99.90;-2.30;95645.00;;;;5019222;28;20443;-72
2022/12/12 01:55:21;;;;;;;1.30;1.30;;;-3.10;99.90;-2.20;95647.00;;;;5026569;28;20420;-72
2022/12/12 01:58:11;;;;;;;1.80;1.50;;;-3.10;99.90;-2.40;95655.00;;;;5032897;28;20846;-72
2022/12/12 02:01:01;;;;;;;1.73;1.60;;;-3.10;99.90;-2.60;95644.00;;;;5024308;28;20435;-72
2022/12/12 02:03:50;;;;;;;0.90;0.90;;;-3.10;99.90;-2.40;95648.00;;;;5017678;28;20487;-72
2022/12/12 02:06:41;;;;;;;1.50;1.40;;;-3.20;99.90;-2.40;95650.00;;;;5029336;28;20460;-72
2022/12/12 02:09:30;;;;;;;1.27;1.20;;;-3.20;99.90;-2.50;95642.00;;;;5021437;28;20429;-72
2022/12/12 02:12:19;;;;;;;1.93;1.70;;;-3.20;99.90;-2.50;95660.00;;;;5031442;28;20426;-72
2022/12/12 02:15:10;;;;;;;1.47;1.37;;;-3.30;99.90;-2.60;95649.00;;;;5016062;28;20437;-71
2022/12/12 02:18:08;;;;;;;1.27;1.10;;;-3.30;99.90;-2.90;95644.00;;;;5029892;28;20420;-72
2022/12/12 02:21:11;;;;;;;1.87;1.47;;;-3.10;99.90;-2.70;95645.00;;;;5024617;28;20447;-72
2022/12/12 02:24:45;;;;;;;1.47;1.43;;;-3.40;99.90;-2.70;95658.00;;;;5038129;28;20454;-72
2022/12/12 02:28:02;;;;;;;4.27;1.53;;;-3.40;99.90;-3.30;95652.00;;;;5031872;28;20475;-71
2022/12/12 02:31:14;;;;;;;1.47;1.33;;;-3.50;99.90;-3.10;95653.00;;;;5032381;28;20821;-72
2022/12/12 02:34:14;;;;;;;2.53;1.70;;;-3.60;99.90;-2.90;95657.00;;;;5012147;28;20958;-72
2022/12/12 02:37:12;;;;;;;1.93;1.83;;;-3.70;99.90;-2.80;95660.00;;;;5021803;28;20429;-72
2022/12/12 02:40:13;;;;;;;1.67;1.27;;;-3.60;99.90;-2.80;95662.00;;;;5022353;28;20824;-72
2022/12/12 02:43:09;;;;;;;1.10;1.10;;;-3.60;99.90;-3.20;95671.00;;;;5024354;28;21068;-73
2022/12/12 02:46:05;;;;;;;1.33;1.23;;;-3.70;99.90;-3.40;95663.00;;;;5024497;28;20467;-72
2022/12/12 02:48:59;;;;;;;1.17;1.07;;;-3.70;99.90;-3.20;95661.00;;;;5022392;28;20423;-72
2022/12/12 02:51:51;;;;;;;1.20;1.10;;;-3.80;99.90;-3.30;95665.00;;;;5017055;28;20432;-72
2022/12/12 02:54:39;;;;;;;1.13;0.97;;;-3.80;99.90;-3.90;95665.00;;;;5025305;28;20469;-72
2022/12/12 02:57:28;;;;;;;1.97;1.83;;;-3.90;99.90;-3.90;95661.00;;;;5010393;28;20432;-72
2022/12/12 03:00:20;;;;;;;2.90;1.20;;;-4.00;99.90;-3.40;95664.00;;;;5017390;28;20433;-72
2022/12/12 03:10:09;;;;;;;1.70;1.23;;;-4.00;99.90;-3.40;95669.00;;;;5021709;28;20416;-72
2022/12/12 03:13:08;;;;;;;1.60;1.57;;;-3.80;99.90;-3.30;95679.00;;;;5011775;28;20463;-72
2022/12/12 03:16:13;;;;;;;1.00;1.00;;;-4.00;99.90;-3.30;95678.00;;;;5016008;28;20946;-72
2022/12/12 03:19:12;;;;;;;1.50;1.10;;;-3.80;99.90;-3.40;95678.00;;;;5035970;28;20432;-72
2022/12/12 03:22:07;;;;;;;4.47;1.00;;;-4.00;99.90;-3.40;95687.00;;;;5011367;28;20425;-72
2022/12/12 03:25:04;;;;;;;1.67;1.10;;;-4.10;99.90;-3.80;95675.00;;;;5012725;28;20804;-72
2022/12/12 03:28:02;;;;;;;2.23;1.87;;;-4.10;99.90;-3.70;95681.00;;;;5012106;28;20461;-72
2022/12/12 03:30:55;;;;;;;4.00;1.90;;;-4.10;99.90;-3.40;95679.00;;;;5016071;28;20425;-72
2022/12/12 03:33:47;;;;;;;1.53;1.43;;;-4.10;99.90;-3.80;95674.00;;;;5023078;28;20448;-72
2022/12/12 03:36:43;;;;;;;2.93;2.33;;;-4.10;99.90;-4.10;95678.00;;;;5028454;28;20435;-71
2022/12/12 03:39:38;;;;;;;5.17;1.63;;;-4.30;99.90;-4.10;95680.00;;;;5034702;28;20413;-72
2022/12/12 03:42:37;;;;;;;2.60;1.97;;;-4.30;99.90;-3.70;95687.00;;;;5010683;28;20454;-72
2022/12/12 03:45:31;;;;;;;3.37;2.07;;;-4.30;99.90;-3.50;95702.00;;;;5011536;28;20793;-72
2022/12/12 03:48:28;;;;;;;1.20;1.20;;;-4.30;99.90;-3.70;95699.00;;;;5010508;28;20468;-72
2022/12/12 03:51:23;;;;;;;1.83;1.53;;;-4.20;99.90;-3.50;95706.00;;;;5012255;28;20444;-72
2022/12/12 03:54:21;;;;;;;0.87;0.87;;;-4.30;99.90;-3.40;95718.00;;;;5011303;28;20452;-72
2022/12/12 03:57:17;;;;;;;1.60;1.40;;;-4.30;99.90;-3.70;95699.00;;;;5011407;28;20432;-72
2022/12/12 04:00:09;;;;;;;1.50;1.10;;;-4.20;99.90;-3.80;95705.00;;;;5013333;28;20437;-72
2022/12/12 04:03:09;;;;;;;1.30;1.20;;;-4.40;99.90;-3.70;95706.00;;;;5038230;22;20985;-88
2022/12/12 04:15:58;;;;;;;1.10;1.10;;;-3.00;99.90;-4.00;95711.00;;;;5051564;28;21248;-89
2022/12/12 04:18:53;;;;;;;2.37;1.70;;;-3.20;99.90;-3.90;95701.00;;;;5053753;22;20514;-86
2022/12/12 04:25:02;;;;;;;1.20;1.10;;;-4.50;99.90;-3.90;95705.00;;;;5066573;28;20431;-87
2022/12/12 04:27:55;;;;;;;1.77;1.50;;;-4.00;99.90;-4.30;95697.00;;;;5058349;28;20460;-86
2022/12/12 04:30:44;;;;;;;1.27;1.17;;;-4.60;99.90;-3.90;95707.00;;;;5065888;28;20439;-86
2022/12/12 04:33:41;;;;;;;0.80;0.80;;;-4.60;99.90;-3.90;95710.00;;;;5062740;28;20447;-85
2022/12/12 04:36:33;;;;;;;1.00;1.00;;;-4.50;99.90;-4.40;95714.00;;;;5077476;28;20430;-86
2022/12/12 04:39:23;;;;;;;1.07;1.07;;;-4.60;99.90;-4.70;95706.00;;;;5071027;28;20435;-86
2022/12/12 04:42:20;;;;;;;1.87;1.77;;;-4.80;99.90;-4.90;95705.00;;;;5075360;28;20441;-86
2022/12/12 04:45:14;;;;;;;2.33;2.00;;;-4.90;99.90;-4.70;95704.00;;;;5067565;28;20506;-85
2022/12/12 04:48:06;;;;;;;0.60;0.60;;;-4.90;99.90;-5.00;95705.00;;;;5073297;28;20621;-86
2022/12/12 04:50:56;;;;;;;1.63;1.53;;;-5.00;99.90;-4.90;95706.00;;;;5073624;28;20462;-85
2022/12/12 04:53:49;;;;;;;1.47;1.07;;;-4.00;99.90;-4.40;95716.00;;;;5063943;28;20426;-86
2022/12/12 04:56:43;;;;;;;1.47;1.37;;;-4.50;99.90;-4.20;95710.00;;;;5073492;28;20430;-85
2022/12/12 04:59:33;;;;;;;0.97;0.97;;;-4.80;99.90;-3.90;95724.00;;;;5061293;28;20420;-86
2022/12/12 05:02:32;;;;;;;1.20;1.20;;;-4.70;99.90;-3.70;95722.00;;;;5060897;28;20422;-86
2022/12/12 05:05:29;;;;;;;1.30;1.20;;;-4.60;99.90;-4.20;95724.00;;;;5062605;28;20433;-86
2022/12/12 05:08:23;;;;;;;1.83;1.73;;;-4.50;99.90;-4.10;95726.00;;;;5073791;28;20505;-85
2022/12/12 05:11:12;;;;;;;2.20;1.43;;;-4.90;99.90;-4.10;95723.00;;;;5067365;28;20821;-87
2022/12/12 05:14:01;;;;;;;0.93;0.93;;;-5.10;99.90;-4.20;95725.00;;;;5061930;28;20930;-86
2022/12/12 05:16:58;;;;;;;0.93;0.87;;;-5.00;99.90;-4.00;95722.00;;;;5062792;28;20429;-85
2022/12/12 05:19:47;;;;;;;1.00;1.00;;;-4.10;99.90;-3.90;95726.00;;;;5075626;28;20454;-86
2022/12/12 05:22:36;;;;;;;1.50;1.40;;;-3.30;99.90;-4.20;95733.00;;;;5072784;28;20435;-86
2022/12/12 05:25:24;;;;;;;0.70;0.70;;;-3.70;99.90;-4.20;95732.00;;;;5062407;28;20808;-87
2022/12/12 05:28:13;;;;;;;1.63;1.40;;;-4.80;99.90;-4.20;95733.00;;;;5058660;28;20486;-86
2022/12/12 05:31:02;;;;;;;1.13;1.13;;;-4.60;99.90;-4.20;95740.00;;;;5069164;28;20988;-87
2022/12/12 05:33:53;;;;;;;1.50;1.40;;;-4.80;99.90;-4.20;95736.00;;;;5071662;28;20419;-87
2022/12/12 05:36:41;;;;;;;1.20;1.20;;;-5.30;99.90;-4.40;95734.00;;;;5066983;28;20454;-87
2022/12/12 05:39:30;;;;;;;1.20;1.20;;;-4.80;99.90;-4.40;95728.00;;;;5069558;28;20435;-87
2022/12/12 05:42:19;;;;;;;0.77;0.77;;;-5.00;99.90;-4.60;95736.00;;;;5080847;28;20435;-86
2022/12/12 05:45:10;;;;;;;1.33;1.10;;;-4.90;99.90;-4.60;95747.00;;;;5065999;28;20439;-86
2022/12/12 05:47:59;;;;;;;1.70;1.10;;;-5.00;99.90;-4.80;95737.00;;;;5063291;28;20481;-86
2022/12/12 05:50:49;;;;;;;0.70;0.70;;;-4.50;99.90;-4.60;95745.00;;;;5065349;28;20448;-87
2022/12/12 05:53:38;;;;;;;1.43;1.30;;;-4.70;99.90;-4.70;95742.00;;;;5067397;28;20427;-87
2022/12/12 05:56:29;;;;;;;1.27;1.17;;;-5.00;99.90;-4.90;95736.00;;;;5070846;28;20415;-87
2022/12/12 05:59:18;;;;;;;2.23;1.90;;;-5.50;99.90;-5.20;95742.00;;;;5069886;28;20442;-86
2022/12/12 06:02:07;;;;;;;1.70;1.63;;;-5.40;99.90;-5.00;95738.00;;;;5061421;28;20414;-86
2022/12/12 06:04:56;;;;;;;2.97;1.50;;;-4.80;99.90;-4.60;95743.00;;;;5066187;28;20438;-87
2022/12/12 06:07:46;;;;;;;1.63;1.53;;;-5.40;99.90;-4.70;95730.00;;;;5074534;28;20477;-87
2022/12/12 06:10:35;;;;;;;0.83;0.80;;;-5.30;99.90;-4.80;95752.00;;;;5073923;28;20803;-87
2022/12/12 06:13:24;;;;;;;4.10;1.47;;;-4.80;99.90;-4.90;95745.00;;;;5060461;28;20446;-87
2022/12/12 06:16:16;;;;;;;1.70;1.60;;;-5.80;99.90;-5.00;95753.00;;;;5066126;28;20438;-87
2022/12/12 06:19:05;;;;;;;1.00;1.00;;;-5.60;99.90;-5.20;95744.00;;;;5054036;28;20445;-87
2022/12/12 06:21:54;;;;;;;2.37;1.43;;;-5.10;99.90;-5.30;95747.00;;;;5071648;28;20976;-85
2022/12/12 06:24:44;;;;;;;2.57;2.40;;;-5.30;99.90;-5.30;95755.00;;;;5065294;28;20435;-88
2022/12/12 06:27:33;;;;;;;1.63;1.53;;;-5.10;99.90;-4.80;95745.00;;;;5066999;28;21237;-86
2022/12/12 06:30:22;;;;;;;1.90;1.47;;;-5.60;99.90;-4.90;95746.00;;;;5063254;28;20447;-86
2022/12/12 06:33:14;;;;;;;0.90;0.90;;;-5.00;99.90;-5.10;95749.00;;;;5064764;28;20471;-87
2022/12/12 06:36:07;;;;;;;1.03;1.03;;;-5.60;99.90;-5.00;95746.00;;;;5061923;28;20443;-86
2022/12/12 06:38:59;;;;;;;0.73;0.73;;;-5.50;99.90;-4.60;95753.00;;;;5061961;28;20433;-87
2022/12/12 06:41:49;;;;;;;1.33;0.87;;;-4.70;99.90;-4.80;95759.00;;;;5069824;28;20431;-87
2022/12/12 06:44:38;;;;;;;1.53;1.43;;;-5.30;99.90;-4.80;95766.00;;;;5073519;28;20418;-86
2022/12/12 06:47:27;;;;;;;1.60;1.50;;;-4.70;99.90;-5.00;95772.00;;;;5074306;28;20426;-85
2022/12/12 06:50:16;;;;;;;1.30;1.20;;;-5.80;99.90;-5.00;95764.00;;;;5074931;28;20457;-87
2022/12/12 06:53:10;;;;;;;1.20;1.10;;;-5.50;99.90;-4.80;95774.00;;;;5075498;28;20430;-87
2022/12/12 06:55:58;;;;;;;2.13;2.00;;;-5.50;99.90;-4.80;95773.00;;;;5077969;28;20430;-88
2022/12/12 06:58:49;;;;;;;2.57;2.30;;;-5.10;99.90;-4.80;95777.00;;;;5056135;28;20420;-88
2022/12/12 07:01:39;;;;;;;1.13;1.07;;;-3.60;99.90;-5.20;95774.00;;;;5066201;28;20528;-87
2022/12/12 07:04:28;;;;;;;1.20;1.20;;;-4.40;99.90;-5.00;95762.00;;;;5069226;28;20418;-86
2022/12/12 07:07:17;;;;;;;4.70;2.37;;;-4.60;99.90;-5.10;95768.00;;;;5069961;28;20436;-86
2022/12/12 07:10:07;;;;;;;0.90;0.90;;;-5.10;99.90;-5.00;95777.00;;;;5067344;28;20450;-86
2022/12/12 07:12:55;;;;;;;1.73;1.43;;;-5.60;99.90;-5.10;95781.00;;;;5055979;28;20434;-87
2022/12/12 07:15:48;;;;;;;1.40;1.30;;;-5.60;99.90;-5.10;95789.00;;;;5074907;28;20825;-87
2022/12/12 07:18:38;;;;;;;2.43;1.53;;;-5.50;99.90;-4.80;95779.00;;;;5074508;28;20434;-87
2022/12/12 07:21:27;;;;;;;0.90;0.90;;;-5.70;99.90;-4.80;95784.00;;;;5074364;28;20452;-87
2022/12/12 07:24:15;;;;;;;2.83;1.33;;;-5.50;99.90;-4.70;95783.00;;;;5075041;28;20437;-88
2022/12/12 07:27:04;;;;;;;2.03;1.80;;;-5.00;99.90;-4.40;95789.00;;;;5062336;28;20526;-87
2022/12/12 07:29:53;;;;;;;0.73;0.73;;;-5.30;99.90;-4.30;95807.00;;;;5060403;28;20469;-87
2022/12/12 07:32:43;;;;;;;1.07;0.80;;;-5.30;99.90;-4.50;95800.00;;;;5056682;28;20424;-88
2022/12/12 07:35:32;;;;;;;1.63;1.53;;;-4.40;99.90;-4.70;95792.00;;;;5068831;28;20973;-86
2022/12/12 07:38:21;;;;;;;0.70;0.70;;;-5.40;99.90;-4.60;95805.00;;;;5074117;28;20950;-86
2022/12/12 07:41:12;;;;;;;2.00;1.13;;;-4.90;99.90;-4.40;95811.00;;;;5074038;28;20949;-86
2022/12/12 07:44:00;;;;;;;1.10;1.10;;;-5.20;99.90;-4.30;95815.00;;;;5062516;28;20798;-88
2022/12/12 07:46:49;;;;;;;1.00;1.00;;;-4.50;99.90;-4.60;95808.00;;;;5069688;28;20428;-87
2022/12/12 07:49:39;;;;;;;1.63;1.43;;;-4.60;99.90;-4.90;95789.00;;;;5072173;28;20829;-86
2022/12/12 07:52:28;;;;;;;2.67;1.60;;;-5.50;99.90;-4.70;95804.00;;;;5059612;28;20434;-86
2022/12/12 07:55:17;;;;;;;1.77;1.67;;;-5.50;99.90;-5.00;95803.00;;;;5071536;28;20427;-87
2022/12/12 07:58:06;;;;;;;1.60;1.13;;;-5.30;99.90;-5.10;95810.00;;;;5060795;28;20430;-85
2022/12/12 08:00:55;;;;;;;1.20;0.97;;;-4.10;99.90;-4.70;95799.00;;;;5064405;28;20438;-86
2022/12/12 08:03:45;;;;;;;0.83;0.83;;;-5.00;99.90;-4.60;95817.00;;;;5056190;28;20938;-87
2022/12/12 08:06:35;;;;;;;1.60;1.50;;;-5.10;99.90;-4.40;95819.00;;;;5070715;28;20425;-86
2022/12/12 08:09:23;;;;;;;2.07;1.97;;;-4.60;99.90;-4.30;95819.00;;;;5057960;28;21001;-87
2022/12/12 08:12:12;;;;;;;1.97;1.87;;;-3.60;99.90;-4.60;95816.00;;;;5055722;28;20432;-87
2022/12/12 08:15:01;;;;;;;1.57;1.57;;;-5.10;99.90;-4.50;95827.00;;;;5067703;28;20426;-87
2022/12/12 08:17:50;;;;;;;1.27;1.17;;;-3.10;99.90;-4.10;95832.00;;;;5073134;28;20852;-87
2022/12/12 08:20:40;;;;;;;1.97;1.87;;;-4.20;99.90;-3.90;95841.00;;;;5073733;28;20447;-86
2022/12/12 08:23:30;;;;;;;2.60;1.50;;;-4.20;99.90;-4.40;95830.00;;;;5064159;28;20423;-87
2022/12/12 08:26:19;;;;;;;2.60;1.53;;;-4.20;99.90;-4.00;95836.00;;;;5071152;28;20430;-86
2022/12/12 08:29:08;;;;;;;3.20;1.77;;;-4.80;99.90;-3.50;95852.00;;;;5072914;28;20473;-86
2022/12/12 08:31:57;;;;;;;1.73;1.63;;;-4.80;99.90;-3.40;95852.00;;;;5073326;28;20839;-85
2022/12/12 08:34:47;;;;;;;1.60;1.50;;;-4.50;99.90;-3.40;95847.00;;;;5073250;28;20419;-86
2022/12/12 08:37:35;;;;;;;1.57;1.27;;;-3.80;99.90;-3.60;95854.00;;;;5073245;28;20431;-86
2022/12/12 08:40:26;;;;;;;2.10;1.90;;;-3.60;99.90;-3.30;95872.00;;;;5072721;28;20457;-86
2022/12/12 08:45:42;;;;;;;1.77;1.67;;;-3.90;99.90;-3.10;95861.00;;;;4955683;28;20966;-69
2022/12/12 08:48:32;;;;;;;1.60;1.50;;;-4.00;99.90;-2.90;95875.00;;;;4951347;28;21341;-69
2022/12/12 08:51:20;;;;;;;3.20;1.90;;;-3.80;99.90;-3.30;95874.00;;;;4949699;28;20428;-70
2022/12/12 08:54:11;;;;;;;3.40;1.50;;;-3.60;99.90;-3.30;95867.00;;;;4950215;28;20448;-69
2022/12/12 08:57:01;;;;;;;4.33;2.27;;;-3.70;99.90;-2.70;95875.00;;;;4949391;28;20439;-69
2022/12/12 08:59:50;;;;;;;2.17;1.90;;;-3.70;99.90;-2.20;95876.00;;;;4935286;28;20424;-69
2022/12/12 09:02:38;;;;;;;8.03;2.70;;;-3.50;99.90;-2.80;95880.00;;;;4941700;28;20427;-69
2022/12/12 09:05:27;;;;;;;4.00;3.60;;;-3.80;99.90;-3.20;95883.00;;;;4946975;28;20436;-70
2022/12/12 09:08:16;;;;;;;1.53;1.40;;;-3.50;99.90;-3.00;95880.00;;;;4951412;28;20943;-69
2022/12/12 09:11:06;;;;;;;2.53;2.10;;;-3.50;99.90;-2.50;95891.00;;;;4949580;28;20506;-70
2022/12/12 09:13:56;;;;;;;3.17;2.87;;;-3.30;99.90;-1.60;95898.00;;;;4949648;29;20448;-69
2022/12/12 09:16:44;;;;;;;1.73;1.50;;;-3.30;99.90;-1.50;95894.00;;;;4949297;29;20432;-69
2022/12/12 09:19:33;;;;;;;2.10;1.90;;;-2.80;99.90;-1.80;95889.00;;;;4949120;29;20440;-70
2022/12/12 09:22:22;;;;;;;1.90;1.70;;;-2.70;99.90;-1.00;95899.00;;;;4949638;28;20424;-69
2022/12/12 09:25:11;;;;;;;1.43;1.33;;;-2.60;99.90;-2.00;95882.00;;;;4945039;28;20456;-71
2022/12/12 09:28:00;;;;;;;2.00;1.40;;;-2.60;99.90;-1.70;95883.00;;;;5015953;28;20436;-68
2022/12/12 09:30:50;;;;;;;1.33;1.17;;;-2.70;99.90;-1.10;95885.00;;;;4940836;29;20468;-68
2022/12/12 09:33:41;;;;;;;1.87;1.77;;;-2.20;99.90;-1.50;95878.00;;;;4961173;28;20452;-68
2022/12/12 09:36:30;;;;;;;6.50;5.07;;;-1.90;99.90;-1.00;95894.00;;;;4961194;28;20426;-68
2022/12/12 09:39:19;;;;;;;7.50;2.10;;;-2.00;99.90;-0.80;95891.00;;;;4950304;28;20440;-68
2022/12/12 09:42:19;;;;;;;1.50;1.40;;;-1.90;99.90;-0.60;95889.00;;;;4948212;28;20435;-69
2022/12/12 09:45:09;;;;;;;2.90;1.80;;;-1.70;99.90;0.10;95892.00;;;;4939076;28;20470;-69
2022/12/12 09:48:03;;;;;;;2.20;1.93;;;-1.50;99.90;0.40;95897.00;;;;4948020;29;20435;-69
2022/12/12 09:50:51;;;;;;;1.33;1.10;;;-0.90;99.90;0.80;95894.00;;;;4948991;28;20467;-69
2022/12/12 09:53:43;;;;;;;1.77;1.53;;;-0.90;99.90;1.00;95902.00;;;;4947958;28;20448;-69
2022/12/12 09:56:42;;;;;;;3.90;2.33;;;-0.20;99.90;1.40;95906.00;;;;4947944;29;20960;-68
2022/12/12 09:59:40;;;;;;;1.63;1.53;;;-0.20;99.90;1.00;95901.00;;;;4947305;28;20792;-70
2022/12/12 10:03:06;;;;;;;1.23;1.03;;;-0.30;99.90;1.40;95900.00;;;;4995626;28;20428;-70
2022/12/12 10:06:04;;;;;;;1.67;1.47;;;0.20;99.90;2.20;95909.00;;;;4945311;28;20428;-67
2022/12/12 10:09:36;;;;;;;2.10;1.80;;;0.70;99.90;2.00;95906.00;;;;4945665;28;20877;-67
2022/12/12 10:12:26;;;;;;;1.17;1.17;;;0.90;99.90;1.40;95909.00;;;;4997501;28;20943;-68
2022/12/12 10:15:28;;;;;;;1.03;0.93;;;0.70;99.90;1.70;95904.00;;;;4952789;28;20459;-68
2022/12/12 10:18:32;;;;;;;1.00;1.00;;;0.80;99.90;3.00;95918.00;;;;4950844;29;20431;-67
2022/12/12 10:21:26;;;;;;;2.10;1.53;;;1.80;99.90;4.20;95916.00;;;;4961541;28;20782;-67
2022/12/12 10:24:27;;;;;;;5.77;1.47;;;3.00;99.90;3.50;95916.00;;;;4976807;28;20463;-66
2022/12/12 10:27:16;;;;;;;1.90;1.50;;;4.50;94.90;2.60;95893.00;;;;4967791;28;20435;-70
2022/12/12 10:30:16;;;;;;;0.70;0.70;;;4.50;92.20;3.00;95908.00;;;;4949946;28;20230;-70
2022/12/12 10:33:24;;;;;;;1.10;0.90;;;4.40;90.60;3.40;95898.00;;;;4941014;28;20432;-66
2022/12/12 10:36:22;;;;;;;1.63;0.90;;;5.00;87.40;4.70;95907.00;;;;4939543;29;20212;-66
2022/12/12 10:39:23;;;;;;;1.07;0.90;;;5.00;86.50;4.00;95902.00;;;;4951182;28;20431;-68
2022/12/12 10:42:22;;;;;;;1.40;1.30;;;5.40;82.40;4.10;95913.00;;;;4950902;29;20424;-66
2022/12/12 10:45:47;;;;;;;1.53;1.37;;;5.40;79.50;3.80;95908.00;;;;4950723;29;20314;-70
2022/12/12 10:48:37;;;;;;;1.20;0.70;;;5.40;77.70;5.00;95906.00;;;;4949002;29;20264;-65
2022/12/12 10:51:29;;;;;;;2.83;1.30;;;5.40;79.50;6.60;95943.00;;;;4952165;28;20247;-66
2022/12/12 10:54:20;;;;;;;4.27;1.10;;;6.20;80.80;7.20;95928.00;;;;4950719;28;20224;-66
2022/12/12 10:57:12;;;;;;;1.70;1.40;;;7.10;79.40;7.30;95922.00;;;;4951129;28;20212;-65
2022/12/12 11:00:26;;;;;;;1.33;0.80;;;7.60;74.60;6.10;95905.00;;;;4950818;28;20204;-65
2022/12/12 11:03:29;;;;;;;1.07;0.97;;;8.00;70.60;6.10;95898.00;;;;4950309;28;20220;-66
2022/12/12 11:06:28;;;;;;;1.33;1.00;;;7.30;73.30;4.90;95913.00;;;;4946101;28;20204;-67
2022/12/12 11:09:21;;;;;;;3.30;1.43;;;6.80;72.30;5.70;95928.00;;;;4945124;28;20858;-65
2022/12/12 11:12:15;;;;;;;1.90;1.20;;;6.50;73.60;6.80;95912.00;;;;4994340;28;20201;-63
2022/12/12 11:15:13;;;;;;;1.43;1.23;;;6.50;75.00;5.10;95892.00;;;;4952256;28;20220;-66
2022/12/12 11:18:02;;;;;;;1.40;1.27;;;6.60;71.00;6.20;95912.00;;;;4977210;28;20592;-64
2022/12/12 11:21:05;;;;;;;1.60;1.13;;;6.90;72.00;6.60;95949.00;;;;4943410;29;20918;-67
2022/12/12 11:23:58;;;;;;;0.90;0.90;;;7.20;71.80;6.30;95921.00;;;;4944790;28;20220;-66
2022/12/12 11:26:52;;;;;;;1.50;1.10;;;6.80;71.80;5.80;95942.00;;;;4942984;28;20226;-68
2022/12/12 11:29:44;;;;;;;1.47;1.13;;;6.90;70.10;5.30;95936.00;;;;4951603;28;20598;-65
2022/12/12 11:32:40;;;;;;;0.63;0.60;;;6.20;71.80;3.70;95888.00;;;;4962146;28;20212;-71
2022/12/12 11:35:33;;;;;;;1.83;1.13;;;5.40;71.90;5.70;95902.00;;;;4950738;29;20672;-64
2022/12/12 11:38:28;;;;;;;0.93;0.80;;;5.30;73.50;5.80;95903.00;;;;4943838;28;20197;-67
2022/12/12 11:41:18;;;;;;;1.23;1.00;;;5.60;73.50;4.90;95895.00;;;;4937732;28;20204;-70
2022/12/12 11:44:24;;;;;;;2.03;1.20;;;5.40;71.70;5.70;95893.00;;;;4948362;28;20240;-65
2022/12/12 11:47:24;;;;;;;1.03;0.70;;;5.60;68.90;5.50;95904.00;;;;4953842;28;20206;-65
2022/12/12 11:50:23;;;;;;;1.67;1.00;;;5.70;67.40;5.40;95884.00;;;;4950625;29;20232;-65
2022/12/12 11:53:11;;;;;;;0.60;0.60;;;5.60;67.10;4.20;95874.00;;;;4950379;29;20212;-71
2022/12/12 11:56:31;;;;;;;0.87;0.77;;;5.10;66.40;6.40;95889.00;;;;4977140;28;20213;-63
2022/12/12 11:59:53;;;;;;;1.40;0.90;;;5.50;67.10;7.40;95904.00;;;;4946830;28;20212;-67
2022/12/12 12:03:24;;;;;;;1.00;0.90;;;5.80;68.70;6.90;95895.00;;;;4964056;28;20671;-68
2022/12/12 12:06:36;;;;;;;0.83;0.83;;;6.60;63.40;6.70;95886.00;;;;4943852;28;20208;-66
2022/12/12 12:09:42;;;;;;;0.87;0.73;;;6.80;64.00;4.60;95855.00;;;;4953977;28;20722;-69
2022/12/12 12:12:48;;;;;;;1.07;0.90;;;6.10;63.80;5.60;95890.00;;;;5010526;28;20752;-66
2022/12/12 12:15:45;;;;;;;2.10;1.00;;;5.90;65.00;6.70;95897.00;;;;4940503;29;20208;-67
2022/12/12 12:18:51;;;;;;;1.43;1.23;;;5.80;65.00;7.80;95900.00;;;;4938458;28;20219;-66
2022/12/12 12:21:59;;;;;;;0.87;0.87;;;6.60;63.60;5.60;95870.00;;;;4950198;28;20675;-68
2022/12/12 12:25:18;;;;;;;1.03;1.00;;;6.10;63.30;4.90;95877.00;;;;4949716;29;20227;-69
2022/12/12 12:29:03;;;;;;;0.80;0.73;;;5.60;62.90;5.10;95886.00;;;;4948642;28;20207;-63
2022/12/12 12:32:02;;;;;;;0.60;0.60;;;5.30;65.00;4.30;95846.00;;;;5006342;28;20235;-66
2022/12/12 12:35:10;;;;;;;0.70;0.70;;;5.00;66.80;5.10;95885.00;;;;4940436;28;20247;-65
2022/12/12 12:38:16;;;;;;;0.90;0.90;;;5.00;69.50;5.00;95935.00;;;;4949039;29;20211;-69
2022/12/12 12:41:30;;;;;;;1.10;0.97;;;4.90;67.20;5.60;95878.00;;;;4950510;28;20231;-65
2022/12/12 12:44:37;;;;;;;0.77;0.77;;;4.70;69.80;6.40;95914.00;;;;4947656;28;20227;-65
2022/12/12 12:47:37;;;;;;;0.97;0.97;;;5.30;67.30;8.10;95907.00;;;;4951197;28;20222;-65
2022/12/12 12:50:31;;;;;;;1.63;0.90;;;5.70;68.20;7.10;95902.00;;;;4948964;29;20239;-65
2022/12/12 12:53:31;;;;;;;2.13;1.53;;;6.60;65.30;6.90;95909.00;;;;4948785;28;20243;-66
2022/12/12 12:56:26;;;;;;;1.67;1.57;;;6.70;65.70;5.50;95937.00;;;;4949448;29;20200;-65
2022/12/12 12:59:21;;;;;;;2.37;1.57;;;6.40;64.50;4.70;95953.00;;;;4949648;28;20207;-67
2022/12/12 13:02:23;;;;;;;1.17;1.00;;;5.50;67.60;3.50;95899.00;;;;4948148;28;20430;-69
2022/12/12 13:05:22;;;;;;;1.47;1.00;;;4.60;68.60;4.30;95891.00;;;;4950141;28;20224;-68
2022/12/12 13:08:21;;;;;;;1.23;1.00;;;4.30;71.20;4.80;95886.00;;;;4965489;28;20218;-70
2022/12/12 13:11:15;;;;;;;0.97;0.93;;;4.40;72.80;5.90;95908.00;;;;4937180;28;20232;-67
2022/12/12 13:14:14;;;;;;;1.33;1.03;;;4.90;70.90;3.70;95947.00;;;;4984751;28;20220;-68
2022/12/12 13:17:05;;;;;;;1.03;0.97;;;5.10;71.60;4.60;95887.00;;;;4965518;28;20215;-69
2022/12/12 13:19:57;;;;;;;1.23;1.10;;;4.70;74.60;5.00;95908.00;;;;4948333;28;20582;-66